»·PEaware :: N211TB KDUG-KABQ

N211TB :: KDUG-KABQ

FLIGHT INFORMATION

Flight Status: Arrived
Operator: Privately registered:
United States
More flights under this callsign
Pilot: Drew L. (13237)
Aircraft: SOCATA TBM-900
(TBM9)
More flights by this aircraft type
Origin: KDUG Bisbee Douglas Intl
United States
Destination: KABQ Albuquerque Intl Sunport
United States
More flights between these airports :: More routes between these airports
Route: SVC ONM
File this flight plan on PilotEdge
Remarks: ROGER
Altitude:
(Current/Filed)
31,000ft
Speed:
(Current/Filed)
0kts
Departed: 26-Oct-18 06:32 PM
Arrived: 26-Oct-18 07:42 PM
Distance/Time
Traveled:
261nm/1:10
Distance/Time
To Go:
Arrived

Flight Plot

Page will automatically refresh every two minutes.

Flight plan parsing failed; only flown route is shown


Map Options




Map Legend


Flown Route
Filed Route
Departure Airport
Arrival Airport
Navaid (VOR, NDB)
Fix

Horizontal Profiles

Position Reports

Time Latitude Longitude Heading Altitude Ground
Speed
26-Oct-18 18:31 31.454350 -109.597157 314 4099ft 0kts
26-Oct-18 18:32 31.454350 -109.597157 314 4099ft 0kts
26-Oct-18 18:33 31.454350 -109.597157 314 4099ft 0kts
26-Oct-18 18:34 31.467837 -109.614201 310 4667ft 144kts
26-Oct-18 18:35 31.493213 -109.645732 315 7239ft 137kts
26-Oct-18 18:36 31.523780 -109.635489 55 9396ft 143kts
26-Oct-18 18:37 31.536290 -109.590466 68 11492ft 148kts
26-Oct-18 18:38 31.548390 -109.543939 68 13398ft 152kts
26-Oct-18 18:39 31.561354 -109.496669 55 15136ft 152kts
26-Oct-18 18:40 31.588372 -109.459060 42 16729ft 153kts
26-Oct-18 18:41 31.618377 -109.422426 42 18963ft 157kts
26-Oct-18 18:42 31.648622 -109.385616 41 21144ft 159kts
26-Oct-18 18:43 31.679411 -109.348111 41 23058ft 163kts
26-Oct-18 18:44 31.710615 -109.310062 41 24759ft 167kts
26-Oct-18 18:45 31.743003 -109.270520 41 26315ft 170kts
26-Oct-18 18:46 31.776124 -109.230054 41 27779ft 178kts
26-Oct-18 18:47 31.810118 -109.188453 40 29740ft 177kts
26-Oct-18 18:48 31.844688 -109.146134 40 31179ft 193kts
26-Oct-18 18:49 31.887540 -109.093602 41 31179ft 244kts
26-Oct-18 18:50 31.936488 -109.033448 41 31165ft 263kts
26-Oct-18 18:51 31.987572 -108.970587 41 31160ft 268kts
26-Oct-18 18:52 32.038151 -108.908251 41 31182ft 272kts
26-Oct-18 18:53 32.090630 -108.843454 41 31205ft 276kts
26-Oct-18 18:54 32.143499 -108.778070 41 31230ft 279kts
26-Oct-18 18:55 32.196546 -108.712338 41 31231ft 280kts
26-Oct-18 18:56 32.249967 -108.646020 41 31230ft 280kts
26-Oct-18 18:57 32.303691 -108.579211 41 31230ft 280kts
26-Oct-18 18:58 32.357172 -108.512580 41 31229ft 280kts
26-Oct-18 18:59 32.410785 -108.445662 41 31228ft 280kts
26-Oct-18 19:00 32.464272 -108.378775 41 31227ft 280kts
26-Oct-18 19:01 32.516614 -108.313202 42 31229ft 280kts
26-Oct-18 19:02 32.569938 -108.246276 42 31228ft 280kts
26-Oct-18 19:03 32.623352 -108.179113 42 31227ft 280kts
26-Oct-18 19:04 32.684944 -108.124767 30 31227ft 276kts
26-Oct-18 19:05 32.749012 -108.075270 30 31226ft 276kts
26-Oct-18 19:06 32.813564 -108.025393 30 31225ft 276kts
26-Oct-18 19:07 32.877589 -107.975845 30 31224ft 276kts
26-Oct-18 19:08 32.941578 -107.926231 30 31223ft 275kts
26-Oct-18 19:09 33.005634 -107.876451 29 31217ft 276kts
26-Oct-18 19:10 33.069856 -107.826485 28 31202ft 278kts
26-Oct-18 19:11 33.134439 -107.776164 28 31192ft 282kts
26-Oct-18 19:12 33.200895 -107.724293 28 31206ft 290kts
26-Oct-18 19:13 33.268727 -107.671229 28 31204ft 293kts
26-Oct-18 19:14 33.338698 -107.616408 28 29945ft 306kts
26-Oct-18 19:15 33.410158 -107.560280 28 28371ft 309kts
26-Oct-18 19:16 33.481853 -107.503859 28 26788ft 309kts
26-Oct-18 19:17 33.553366 -107.447468 29 25201ft 309kts
26-Oct-18 19:18 33.624818 -107.391017 29 23606ft 308kts
26-Oct-18 19:19 33.695014 -107.335439 29 22002ft 300kts
26-Oct-18 19:20 33.763829 -107.280860 30 20396ft 297kts
26-Oct-18 19:21 33.832403 -107.226362 30 18785ft 296kts
26-Oct-18 19:22 33.900633 -107.172031 30 17182ft 294kts
26-Oct-18 19:23 33.966455 -107.119498 30 16535ft 278kts
26-Oct-18 19:24 34.030427 -107.068369 30 15910ft 275kts
26-Oct-18 19:25 34.093873 -107.017556 30 15289ft 275kts
26-Oct-18 19:26 34.142844 -106.978266 30 15000ft 271kts
26-Oct-18 19:27 34.204080 -106.929069 29 15000ft 265kts
26-Oct-18 19:28 34.265493 -106.879650 29 15001ft 265kts
26-Oct-18 19:29 34.330657 -106.847456 8 15003ft 260kts
26-Oct-18 19:30 34.403631 -106.830094 8 13947ft 269kts
26-Oct-18 19:31 34.475629 -106.813086 7 13073ft 261kts
26-Oct-18 19:32 34.545496 -106.796569 7 12267ft 254kts
26-Oct-18 19:33 34.613725 -106.780413 7 11454ft 241kts
26-Oct-18 19:34 34.662614 -106.768821 7 10836ft 234kts
26-Oct-18 19:35 34.722450 -106.754585 8 10005ft 201kts
26-Oct-18 19:36 34.772490 -106.747445 345 9844ft 175kts
26-Oct-18 19:37 34.817828 -106.770228 335 8470ft 178kts
26-Oct-18 19:38 34.861944 -106.792306 1 7734ft 180kts
26-Oct-18 19:39 34.907849 -106.768028 40 6902ft 187kts
26-Oct-18 19:40 34.945601 -106.722684 39 6716ft 184kts
26-Oct-18 19:41 34.977258 -106.684733 38 6499ft 138kts
26-Oct-18 19:42 34.999562 -106.657923 38 5983ft 120kts
26-Oct-18 19:43 35.020455 -106.632742 37 5379ft 105kts
26-Oct-18 19:44 35.031701 -106.619255 35 5318ft 40kts
26-Oct-18 19:45 35.035311 -106.618423 34 5318ft 0kts
26-Oct-18 19:46 35.035311 -106.618423 34 5318ft 0kts

Navigation Log

Ident Type
Flight plan parsing failed, navigation log unavailable